createdAt,value
2022-10-03T00:02:45.149Z,1.40
2022-10-03T00:05:23.815Z,3.03
2022-10-03T00:08:15.672Z,3.53
2022-10-03T00:10:53.126Z,3.40
2022-10-03T00:13:22.905Z,2.47
2022-10-03T00:16:04.047Z,2.60
2022-10-03T00:19:08.194Z,2.25
2022-10-03T00:21:34.879Z,1.83
2022-10-03T00:24:01.137Z,3.90
2022-10-03T00:26:55.555Z,4.07
2022-10-03T00:29:21.816Z,2.42
2022-10-03T00:32:01.966Z,2.75
2022-10-03T00:34:43.319Z,2.78
2022-10-03T00:37:25.647Z,3.22
2022-10-03T00:40:00.808Z,4.65
2022-10-03T00:43:01.348Z,4.57
2022-10-03T00:45:40.376Z,2.80
2022-10-03T00:48:10.058Z,4.03
2022-10-03T00:51:10.476Z,5.60
2022-10-03T00:53:49.269Z,3.97
2022-10-03T00:56:18.815Z,2.95
2022-10-03T00:58:55.161Z,3.58
2022-10-03T01:01:34.491Z,3.05
2022-10-03T01:04:16.721Z,4.78
2022-10-03T01:07:06.380Z,4.10
2022-10-03T01:09:55.553Z,4.10
2022-10-03T01:12:33.808Z,7.70
2022-10-03T01:15:10.679Z,4.15
2022-10-03T01:18:05.792Z,4.97
2022-10-03T01:20:44.892Z,4.55
2022-10-03T01:23:20.593Z,4.38
2022-10-03T01:25:49.915Z,5.40
2022-10-03T01:29:06.447Z,4.88
2022-10-03T01:31:55.690Z,4.78
2022-10-03T01:34:45.484Z,5.18
2022-10-03T01:37:40.135Z,5.20
2022-10-03T01:40:26.560Z,6.10
2022-10-03T01:43:09.616Z,5.30
2022-10-03T01:45:41.689Z,4.18
2022-10-03T01:48:15.670Z,5.20
2022-10-03T01:51:11.447Z,5.07
2022-10-03T01:53:55.355Z,5.50
2022-10-03T01:56:33.652Z,19.80
2022-10-03T01:59:06.674Z,5.07
2022-10-03T02:02:01.540Z,14.40
2022-10-03T02:05:01.714Z,6.80
2022-10-03T02:07:44.243Z,3.50
2022-10-03T02:10:29.074Z,5.05
2022-10-03T02:13:27.873Z,3.22
2022-10-03T02:16:10.243Z,2.97
2022-10-03T02:19:00.376Z,4.90
2022-10-03T02:21:31.051Z,6.13
2022-10-03T02:24:20.747Z,4.50
2022-10-03T02:27:13.294Z,8.70
2022-10-03T02:30:09.805Z,5.28
2022-10-03T02:32:45.666Z,4.65
2022-10-03T02:35:33.286Z,5.22
2022-10-03T02:38:13.002Z,4.03
2022-10-03T02:41:19.076Z,3.20
2022-10-03T02:46:57.512Z,2.92
2022-10-03T02:50:01.706Z,2.75
2022-10-03T02:52:52.586Z,4.65
2022-10-03T02:55:58.036Z,5.05
2022-10-03T02:58:52.211Z,5.20
2022-10-03T03:01:35.736Z,4.15
2022-10-03T03:04:02.374Z,4.97
2022-10-03T03:06:41.884Z,6.65
2022-10-03T03:09:57.903Z,4.15
2022-10-03T03:12:45.776Z,6.57
2022-10-03T03:15:26.962Z,4.78
2022-10-03T03:18:24.809Z,4.88
2022-10-03T03:21:16.146Z,4.75
2022-10-03T03:24:06.223Z,3.72
2022-10-03T03:26:40.740Z,5.32
2022-10-03T03:29:24.842Z,6.28
2022-10-03T03:32:27.635Z,8.25
2022-10-03T03:35:14.273Z,5.35
2022-10-03T03:37:59.659Z,5.97
2022-10-03T03:40:59.996Z,5.88
2022-10-03T03:43:45.084Z,7.38
2022-10-03T03:46:34.744Z,6.70
2022-10-03T03:49:32.555Z,7.28
2022-10-03T03:52:26.571Z,7.35
2022-10-03T03:55:15.284Z,7.18
2022-10-03T03:58:00.387Z,7.78
2022-10-03T04:00:54.786Z,7.90
2022-10-03T04:03:27.291Z,7.20
2022-10-03T04:06:07.838Z,7.20
2022-10-03T04:09:00.675Z,7.93
2022-10-03T04:11:55.079Z,6.53
2022-10-03T04:15:06.067Z,5.78
2022-10-03T04:18:14.040Z,9.00
2022-10-03T04:20:56.110Z,6.00
2022-10-03T04:23:31.641Z,7.63
2022-10-03T04:26:35.578Z,7.13
2022-10-03T04:29:08.425Z,7.75
2022-10-03T04:31:49.569Z,7.38
2022-10-03T04:34:35.268Z,8.40
2022-10-03T04:37:16.582Z,7.15
2022-10-03T04:40:21.016Z,7.38
2022-10-03T04:43:15.736Z,7.53
2022-10-03T04:46:02.217Z,7.77
2022-10-03T04:48:39.556Z,8.73
2022-10-03T04:51:26.194Z,8.25
2022-10-03T04:53:58.680Z,6.63
2022-10-03T04:56:51.286Z,8.98
2022-10-03T04:59:48.552Z,7.25
2022-10-03T05:02:41.271Z,7.97
2022-10-03T05:05:39.593Z,7.15
2022-10-03T05:08:17.923Z,6.93
2022-10-03T05:11:15.171Z,9.80
2022-10-03T05:13:54.263Z,8.68
2022-10-03T05:16:29.568Z,6.32
2022-10-03T05:19:21.360Z,7.80
2022-10-03T05:21:56.951Z,6.82
2022-10-03T05:25:13.629Z,6.35
2022-10-03T05:27:40.543Z,6.63
2022-10-03T05:30:20.046Z,12.68
2022-10-03T05:33:08.284Z,14.23
2022-10-03T05:36:13.652Z,13.20
2022-10-03T05:38:52.667Z,8.32
2022-10-03T05:41:36.411Z,7.35
2022-10-03T05:44:13.205Z,7.07
2022-10-03T05:46:45.890Z,5.97
2022-10-03T05:49:27.878Z,5.78
2022-10-03T05:51:58.169Z,6.15
2022-10-03T05:54:57.426Z,5.03
2022-10-03T05:57:59.265Z,6.85
2022-10-03T06:00:53.472Z,4.93
2022-10-03T06:03:41.409Z,6.22
2022-10-03T06:06:24.911Z,5.53
2022-10-03T06:09:00.087Z,6.25
2022-10-03T06:11:44.773Z,7.00
2022-10-03T06:14:34.743Z,9.77
2022-10-03T06:17:18.991Z,10.10
2022-10-03T06:20:01.073Z,14.68
2022-10-03T06:22:49.264Z,18.52
2022-10-03T06:25:48.547Z,22.05
2022-10-03T06:28:57.202Z,28.08
2022-10-03T06:31:54.612Z,29.10
2022-10-03T06:34:21.479Z,28.27
2022-10-03T06:37:06.552Z,27.33
2022-10-03T06:40:01.127Z,26.13
2022-10-03T06:42:51.174Z,25.07
2022-10-03T06:45:39.837Z,29.05
2022-10-03T06:48:37.317Z,27.42
2022-10-03T06:51:30.332Z,29.75
2022-10-03T06:54:16.813Z,33.05
2022-10-03T06:56:57.159Z,37.15
2022-10-03T06:59:36.518Z,37.45
2022-10-03T07:02:42.542Z,37.78
2022-10-03T07:05:41.258Z,37.67
2022-10-03T07:08:40.175Z,27.92
2022-10-03T07:11:29.891Z,36.53
2022-10-03T07:14:16.036Z,29.70
2022-10-03T07:16:54.363Z,29.48
2022-10-03T07:19:29.611Z,25.73
2022-10-03T07:22:19.140Z,31.02
2022-10-03T07:25:13.297Z,28.88
2022-10-03T07:28:25.083Z,21.45
2022-10-03T07:31:33.481Z,9.57
2022-10-03T07:34:28.159Z,12.70
2022-10-03T07:37:41.009Z,12.13
2022-10-03T07:40:25.738Z,9.35
2022-10-03T07:43:19.421Z,9.57
2022-10-03T07:46:08.940Z,8.70
2022-10-03T07:49:16.209Z,9.40
2022-10-03T07:51:53.765Z,9.10
2022-10-03T07:54:38.756Z,11.32
2022-10-03T07:57:24.131Z,7.63
2022-10-03T08:00:07.440Z,9.68
2022-10-03T08:02:53.053Z,8.25
2022-10-03T08:05:34.527Z,10.85
2022-10-03T08:08:21.336Z,11.05
2022-10-03T08:11:19.629Z,7.78
2022-10-03T08:14:07.884Z,8.38
2022-10-03T08:16:59.303Z,10.63
2022-10-03T08:19:52.152Z,12.43
2022-10-03T08:22:40.425Z,8.40
2022-10-03T08:25:13.223Z,11.18
2022-10-03T08:28:05.404Z,13.25
2022-10-03T08:30:47.279Z,10.90
2022-10-03T08:33:24.991Z,7.68
2022-10-03T08:36:05.407Z,8.30
2022-10-03T08:38:46.682Z,8.57
2022-10-03T08:41:16.434Z,8.50
2022-10-03T08:43:56.433Z,8.18
2022-10-03T08:46:45.222Z,10.65
2022-10-03T08:49:30.010Z,9.27
2022-10-03T08:52:18.441Z,10.18
2022-10-03T08:55:19.753Z,11.60
2022-10-03T08:58:05.163Z,8.38
2022-10-03T09:01:10.469Z,10.60
2022-10-03T09:03:58.480Z,8.73
2022-10-03T09:07:05.488Z,9.40
2022-10-03T09:09:41.886Z,11.50
2022-10-03T09:12:17.264Z,10.45
2022-10-03T09:14:50.053Z,8.13
2022-10-03T09:17:26.820Z,8.05
2022-10-03T09:20:10.668Z,7.40
2022-10-03T09:23:16.070Z,7.97
2022-10-03T09:26:29.431Z,11.93
2022-10-03T09:29:26.913Z,11.20
2022-10-03T09:32:24.955Z,9.15
2022-10-03T09:35:16.188Z,11.88
2022-10-03T09:38:12.280Z,8.05
2022-10-03T09:41:09.652Z,8.20
2022-10-03T09:43:57.322Z,10.60
2022-10-03T09:46:29.868Z,9.98
2022-10-03T09:49:28.023Z,7.30
2022-10-03T09:52:26.195Z,6.60
2022-10-03T09:55:08.263Z,6.93
2022-10-03T09:57:56.083Z,4.65
2022-10-03T10:00:37.836Z,12.23
2022-10-03T10:03:19.296Z,7.85
2022-10-03T10:06:12.031Z,7.63
2022-10-03T10:08:45.163Z,5.82
2022-10-03T10:11:25.091Z,7.90
2022-10-03T10:14:23.372Z,7.18
2022-10-03T10:17:16.350Z,9.88
2022-10-03T10:20:13.118Z,4.82
2022-10-03T10:23:04.995Z,5.72
2022-10-03T10:26:04.564Z,7.82
2022-10-03T10:28:31.496Z,10.15
2022-10-03T10:31:47.229Z,8.20
2022-10-03T10:34:51.315Z,3.63
2022-10-03T10:37:35.960Z,6.80
2022-10-03T10:42:44.105Z,5.60
2022-10-03T10:45:43.256Z,7.93
2022-10-03T10:48:28.006Z,8.05
2022-10-03T10:51:13.134Z,5.80
2022-10-03T10:54:01.808Z,4.78
2022-10-03T10:57:05.880Z,6.10
2022-10-03T10:59:50.932Z,6.68
2022-10-03T11:02:44.794Z,5.80
2022-10-03T11:05:29.379Z,5.60
2022-10-03T11:08:05.683Z,8.73
2022-10-03T11:11:01.279Z,5.70
2022-10-03T11:13:56.687Z,6.60
2022-10-03T11:17:01.151Z,4.40
2022-10-03T11:19:36.903Z,18.45
2022-10-03T11:22:38.756Z,5.13
2022-10-03T11:25:40.775Z,4.85
2022-10-03T11:28:32.469Z,4.32
2022-10-03T11:31:45.122Z,7.30
2022-10-03T11:34:37.011Z,5.03
2022-10-03T11:37:36.349Z,4.07
2022-10-03T11:40:14.908Z,8.43
2022-10-03T11:43:17.571Z,3.78
2022-10-03T11:46:05.814Z,5.40
2022-10-03T11:48:55.075Z,5.18
2022-10-03T11:51:21.359Z,4.57
2022-10-03T11:54:29.397Z,7.97
2022-10-03T12:00:08.720Z,3.45
2022-10-03T12:03:20.668Z,6.55
2022-10-03T12:05:52.916Z,4.82
2022-10-03T12:08:41.655Z,8.40
2022-10-03T12:11:13.849Z,2.90
2022-10-03T12:13:46.569Z,7.68
2022-10-03T12:16:29.931Z,5.30
2022-10-03T12:19:12.323Z,7.75
2022-10-03T12:21:55.768Z,5.82
2022-10-03T12:24:32.646Z,5.47
2022-10-03T12:27:04.636Z,4.55
2022-10-03T12:29:35.515Z,3.92
2022-10-03T12:32:29.522Z,7.88
2022-10-03T12:35:14.475Z,4.95
2022-10-03T12:40:36.741Z,4.22
2022-10-03T12:43:38.487Z,2.17
2022-10-03T12:46:31.068Z,6.72
2022-10-03T12:49:39.217Z,2.92
2022-10-03T12:52:29.747Z,4.88
2022-10-03T12:55:27.207Z,4.75
2022-10-03T12:58:08.757Z,5.18
2022-10-03T13:01:06.359Z,8.30
2022-10-03T13:03:51.993Z,5.80
2022-10-03T13:07:09.021Z,4.20
2022-10-03T13:09:52.060Z,3.55
2022-10-03T13:12:41.346Z,7.72
2022-10-03T13:15:39.484Z,6.43
2022-10-03T13:18:18.825Z,5.90
2022-10-03T13:21:26.868Z,4.32
2022-10-03T13:24:05.872Z,4.93
2022-10-03T13:26:54.617Z,3.45
2022-10-03T13:29:58.767Z,2.72
2022-10-03T13:32:35.947Z,4.32
2022-10-03T13:35:24.618Z,4.85
2022-10-03T13:38:13.483Z,3.53
2022-10-03T13:40:49.102Z,5.20
2022-10-03T13:43:23.146Z,4.78
2022-10-03T13:45:51.954Z,4.45
2022-10-03T13:48:23.252Z,5.93
2022-10-03T13:51:05.926Z,2.25
2022-10-03T13:53:45.916Z,4.47
2022-10-03T13:56:30.432Z,4.78
2022-10-03T13:59:33.653Z,5.32
2022-10-03T14:02:09.132Z,3.25
2022-10-03T14:04:56.318Z,2.45
2022-10-03T14:07:41.552Z,3.15
2022-10-03T14:10:18.102Z,5.20
2022-10-03T14:12:56.063Z,4.28
2022-10-03T14:15:50.661Z,8.43
2022-10-03T14:18:25.791Z,6.15
2022-10-03T14:21:20.179Z,3.55
2022-10-03T14:24:04.772Z,5.30
2022-10-03T14:26:53.400Z,4.93
2022-10-03T14:29:31.723Z,4.68
2022-10-03T14:32:42.570Z,2.88
2022-10-03T14:35:38.592Z,3.85
2022-10-03T14:38:46.497Z,5.28
2022-10-03T14:41:21.059Z,4.05
2022-10-03T14:46:25.642Z,2.70
2022-10-03T14:49:03.049Z,3.90
2022-10-03T14:51:39.373Z,5.15
2022-10-03T14:54:28.161Z,3.53
2022-10-03T14:56:57.051Z,7.20
2022-10-03T14:59:29.700Z,5.05
2022-10-03T15:01:57.605Z,6.47
2022-10-03T15:04:27.976Z,7.13
2022-10-03T15:06:57.678Z,4.70
2022-10-03T15:09:33.716Z,3.92
2022-10-03T15:12:22.545Z,8.30
2022-10-03T15:14:59.000Z,6.35
2022-10-03T15:17:31.912Z,6.45
2022-10-03T15:20:01.160Z,4.65
2022-10-03T15:22:36.706Z,3.15
2022-10-03T15:25:08.059Z,5.93
2022-10-03T15:27:35.817Z,9.43
2022-10-03T15:30:05.702Z,4.68
2022-10-03T15:32:37.681Z,4.45
2022-10-03T15:35:06.023Z,8.20
2022-10-03T15:37:42.845Z,1.98
2022-10-03T15:40:30.597Z,3.05
2022-10-03T15:43:18.132Z,5.72
2022-10-03T15:45:44.993Z,8.27
2022-10-03T15:48:18.572Z,7.32
2022-10-03T15:50:52.088Z,4.43
2022-10-03T15:53:37.195Z,4.05
2022-10-03T15:56:15.832Z,9.15
2022-10-03T15:59:05.828Z,4.78
2022-10-03T16:01:38.816Z,4.15
2022-10-03T16:04:19.671Z,10.32
2022-10-03T16:07:00.551Z,8.43
2022-10-03T16:09:38.784Z,7.35
2022-10-03T16:12:43.385Z,7.47
2022-10-03T16:15:18.992Z,5.90
2022-10-03T16:17:56.949Z,3.58
2022-10-03T16:20:35.401Z,8.00
2022-10-03T16:23:16.934Z,4.32
2022-10-03T16:25:46.931Z,6.10
2022-10-03T16:28:18.134Z,4.72
2022-10-03T16:31:04.863Z,3.88
2022-10-03T16:33:42.384Z,3.05
2022-10-03T16:36:16.098Z,5.60
2022-10-03T16:38:54.295Z,6.75
2022-10-03T16:41:28.343Z,2.95
2022-10-03T16:44:00.351Z,5.50
2022-10-03T16:46:32.018Z,3.55
2022-10-03T16:49:21.343Z,6.05
2022-10-03T16:52:03.487Z,4.43
2022-10-03T16:54:33.858Z,3.72
2022-10-03T16:57:05.094Z,4.88
2022-10-03T16:59:33.508Z,4.35
2022-10-03T17:02:11.850Z,7.28
2022-10-03T17:04:50.958Z,3.88
2022-10-03T17:07:28.968Z,4.60
2022-10-03T17:09:58.363Z,6.85
2022-10-03T17:12:30.079Z,4.30
2022-10-03T17:15:03.051Z,3.92
2022-10-03T17:17:50.307Z,4.40
2022-10-03T17:20:22.343Z,6.13
2022-10-03T17:23:00.056Z,3.85
2022-10-03T17:25:49.748Z,7.53
2022-10-03T17:28:45.030Z,5.72
2022-10-03T17:31:28.755Z,3.42
2022-10-03T17:34:08.935Z,6.63
2022-10-03T17:37:03.152Z,6.30
2022-10-03T17:39:56.584Z,3.97
2022-10-03T17:42:34.106Z,6.35
2022-10-03T17:45:31.253Z,3.75
2022-10-03T17:48:12.108Z,2.95
2022-10-03T17:50:55.310Z,7.05
2022-10-03T17:53:27.668Z,6.05
2022-10-03T17:56:07.157Z,9.18
2022-10-03T17:58:35.463Z,4.47
2022-10-03T18:01:15.058Z,6.68
2022-10-03T18:03:58.146Z,3.03
2022-10-03T18:06:36.938Z,5.00
2022-10-03T18:09:09.306Z,4.65
2022-10-03T18:11:42.089Z,4.60
2022-10-03T18:14:27.546Z,2.30
2022-10-03T18:17:17.469Z,3.60
2022-10-03T18:20:02.657Z,2.45
2022-10-03T18:25:29.323Z,1.70
2022-10-03T18:28:31.880Z,3.60
2022-10-03T18:31:03.007Z,4.55
2022-10-03T18:33:50.728Z,5.55
2022-10-03T18:36:29.132Z,2.95
2022-10-03T18:39:03.864Z,3.65
2022-10-03T18:41:30.452Z,5.07
2022-10-03T18:43:59.983Z,2.47
2022-10-03T18:46:41.262Z,3.08
2022-10-03T18:49:31.825Z,2.63
2022-10-03T18:52:10.933Z,3.15
2022-10-03T18:54:50.244Z,5.47
2022-10-03T18:57:35.195Z,3.67
2022-10-03T19:00:21.870Z,2.22
2022-10-03T19:02:59.139Z,3.45
2022-10-03T19:05:34.079Z,5.30
2022-10-03T19:10:54.031Z,3.83
2022-10-03T19:13:29.163Z,3.85
2022-10-03T19:16:14.614Z,3.97
2022-10-03T19:19:04.456Z,3.55
2022-10-03T19:21:35.658Z,2.92
2022-10-03T19:24:12.421Z,3.92
2022-10-03T19:26:45.554Z,4.65
2022-10-03T19:29:22.963Z,6.35
2022-10-03T19:32:16.865Z,5.32
2022-10-03T19:34:48.715Z,8.68
2022-10-03T19:37:31.064Z,10.85
2022-10-03T19:39:59.169Z,6.60
2022-10-03T19:42:42.111Z,2.22
2022-10-03T19:45:13.647Z,4.32
2022-10-03T19:47:50.946Z,3.50
2022-10-03T19:50:28.088Z,1.92
2022-10-03T19:52:54.914Z,1.67
2022-10-03T19:55:32.160Z,2.63
2022-10-03T19:58:12.907Z,4.15
2022-10-03T20:00:48.813Z,1.65
2022-10-03T20:03:27.592Z,5.55
2022-10-03T20:06:01.430Z,2.10
2022-10-03T20:08:31.032Z,2.58
2022-10-03T20:11:14.879Z,1.30
2022-10-03T20:13:44.218Z,1.73
2022-10-03T20:16:20.381Z,2.20
2022-10-03T20:18:50.876Z,2.38
2022-10-03T20:21:20.368Z,1.92
2022-10-03T20:23:48.069Z,2.13
2022-10-03T20:26:39.771Z,2.78
2022-10-03T20:29:18.480Z,3.42
2022-10-03T20:31:47.263Z,3.22
2022-10-03T20:34:22.829Z,6.63
2022-10-03T20:37:12.206Z,1.75
2022-10-03T20:39:43.042Z,1.73
2022-10-03T20:42:26.187Z,2.42
2022-10-03T20:45:02.054Z,7.10
2022-10-03T20:47:40.589Z,6.15
2022-10-03T20:50:12.531Z,3.05
2022-10-03T20:52:39.075Z,2.65
2022-10-03T20:55:09.116Z,2.00
2022-10-03T20:57:48.455Z,1.98
2022-10-03T21:00:21.236Z,1.50
2022-10-03T21:02:56.613Z,1.73
2022-10-03T21:05:28.664Z,2.13
2022-10-03T21:07:59.443Z,1.20
2022-10-03T21:10:47.544Z,2.30
2022-10-03T21:13:37.211Z,2.28
2022-10-03T21:16:16.602Z,2.03
2022-10-03T21:18:46.525Z,2.67
2022-10-03T21:21:19.858Z,3.78
2022-10-03T21:24:10.855Z,2.10
2022-10-03T21:26:47.144Z,1.33
2022-10-03T21:29:29.456Z,4.20
2022-10-03T21:32:16.898Z,1.75
2022-10-03T21:35:01.236Z,2.75
2022-10-03T21:37:34.403Z,4.90
2022-10-03T21:40:38.906Z,2.75
2022-10-03T21:43:17.208Z,2.75
2022-10-03T21:46:04.968Z,3.63
2022-10-03T21:49:09.737Z,2.13
2022-10-03T21:52:18.409Z,1.40
2022-10-03T21:55:07.903Z,1.83
2022-10-03T21:58:16.180Z,2.20
2022-10-03T22:00:54.501Z,3.03
2022-10-03T22:03:26.097Z,1.63
2022-10-03T22:06:00.437Z,1.90
2022-10-03T22:08:32.268Z,1.10
2022-10-03T22:11:22.635Z,1.52
2022-10-03T22:14:16.379Z,1.83
2022-10-03T22:17:15.374Z,1.40
2022-10-03T22:19:53.189Z,1.42
2022-10-03T22:22:32.407Z,2.13
2022-10-03T22:25:34.631Z,1.20
2022-10-03T22:28:25.311Z,2.15
2022-10-03T22:31:05.522Z,2.40
2022-10-03T22:33:37.940Z,1.65
2022-10-03T22:36:04.476Z,1.67
2022-10-03T22:38:35.945Z,2.55
2022-10-03T22:41:06.394Z,1.50
2022-10-03T22:43:37.313Z,1.40
2022-10-03T22:46:06.948Z,1.98
2022-10-03T22:48:40.368Z,1.80
2022-10-03T22:51:11.754Z,1.45
2022-10-03T22:53:45.286Z,1.88
2022-10-03T22:56:35.236Z,2.20
2022-10-03T22:59:05.755Z,2.38
2022-10-03T23:01:34.511Z,1.80
2022-10-03T23:04:03.230Z,2.22
2022-10-03T23:06:57.531Z,1.55
2022-10-03T23:09:36.543Z,1.42
2022-10-03T23:12:04.395Z,3.88
2022-10-03T23:14:38.088Z,2.20
2022-10-03T23:17:13.722Z,3.70
2022-10-03T23:19:55.202Z,2.72
2022-10-03T23:22:27.723Z,3.63
2022-10-03T23:25:00.971Z,1.90
2022-10-03T23:27:58.090Z,1.55
2022-10-03T23:30:24.402Z,1.23
2022-10-03T23:32:58.838Z,1.63
2022-10-03T23:35:31.119Z,1.35
2022-10-03T23:38:01.470Z,1.15
2022-10-03T23:40:44.777Z,1.83
2022-10-03T23:43:20.444Z,1.35
2022-10-03T23:45:50.286Z,2.90
2022-10-03T23:48:20.012Z,1.92
2022-10-03T23:50:51.672Z,1.15
2022-10-03T23:53:41.626Z,1.55
2022-10-03T23:56:26.427Z,1.95
2022-10-03T23:58:58.665Z,1.23
